Oriibu — JD2579 — position and weather

sailwx.info

Track history (hours):
 
Tides and Currents Weather Stations Pressure Air Temp Water Temp Dewpoint Dewpoint Depression Visibility Wind Speed Wind Dir Waves Ship Positions

Oriibu

Last reported at 2017-Feb-27 09:13 UTC. Time now 2017-Feb-28 07:55 UTC.
Position N 34°36' E 134°56'.

Length 75 m; draft 4.5 m.

MMSI: 431000426.

Date/timePositionNaut miles runAvg speedWind from/ knotsBaromVisibWave heightAir tempDewpointWater temp
2017-Feb-27 09:13N 34°36' E 134°56'710.6
2017-Feb-27 08:33N 34°36' E 135°04'1211.8
2017-Feb-27 07:34N 34°33' E 135°18'5 0.3
2017-Feb-26 14:30N 34°31' E 135°24'1 0.1
2017-Feb-25 18:33N 34°32' E 135°23'1010.1
2017-Feb-25 17:33N 34°27' E 135°12'  
2017-Feb-21 08:33N 35°04' E 139°44'1212.3
2017-Feb-21 07:33N 35°17' E 139°45'7 6.8
2017-Feb-21 06:33N 35°22' E 139°40'0 0.0
2017-Feb-21 05:33N 35°22' E 139°40'0 0.0
2017-Feb-21 04:33N 35°22' E 139°40'0 0.0
2017-Feb-21 03:34N 35°22' E 139°40'0 0.0
2017-Feb-21 02:33N 35°22' E 139°40'0 0.0
2017-Feb-21 01:34N 35°22' E 139°40'0 0.0
2017-Feb-21 00:23N 35°22' E 139°40'2 2.5
2017-Feb-20 23:34N 35°23' E 139°42'1211.8
2017-Feb-20 22:34N 35°33' E 139°51'5 0.1
2017-Feb-18 21:15N 35°38' E 139°48'5 7.5
2017-Feb-18 20:33N 35°33' E 139°52'9 9.6
2017-Feb-18 19:33N 35°25' E 139°47'9 9.1
2017-Feb-18 18:33N 35°16' E 139°47'10 9.7
2017-Feb-18 17:33N 35°06' E 139°44'  
Track history (hours):
 
Tides and Currents Weather Stations Pressure Air Temp Water Temp Dewpoint Dewpoint Depression Visibility Wind Speed Wind Dir Waves Ship Positions

Oriibu

Last reported at 2017-Feb-27 09:13 UTC. Time now 2017-Feb-28 07:55 UTC.
Position N 34°36' E 134°56'.

Length 75 m; draft 4.5 m.

MMSI: 431000426.

Date/timePositionNaut miles runAvg speedWind from/ knotsBaromVisibWave heightAir tempDewpointWater temp
2017-Feb-27 09:13N 34°36' E 134°56'710.6
2017-Feb-27 08:33N 34°36' E 135°04'1211.8
2017-Feb-27 07:34N 34°33' E 135°18'5 0.3
2017-Feb-26 14:30N 34°31' E 135°24'1 0.1
2017-Feb-25 18:33N 34°32' E 135°23'1010.1
2017-Feb-25 17:33N 34°27' E 135°12'  
2017-Feb-21 08:33N 35°04' E 139°44'1212.3
2017-Feb-21 07:33N 35°17' E 139°45'7 6.8
2017-Feb-21 06:33N 35°22' E 139°40'0 0.0
2017-Feb-21 05:33N 35°22' E 139°40'0 0.0
2017-Feb-21 04:33N 35°22' E 139°40'0 0.0
2017-Feb-21 03:34N 35°22' E 139°40'0 0.0
2017-Feb-21 02:33N 35°22' E 139°40'0 0.0
2017-Feb-21 01:34N 35°22' E 139°40'0 0.0
2017-Feb-21 00:23N 35°22' E 139°40'2 2.5
2017-Feb-20 23:34N 35°23' E 139°42'1211.8
2017-Feb-20 22:34N 35°33' E 139°51'5 0.1
2017-Feb-18 21:15N 35°38' E 139°48'5 7.5
2017-Feb-18 20:33N 35°33' E 139°52'9 9.6
2017-Feb-18 19:33N 35°25' E 139°47'9 9.1
2017-Feb-18 18:33N 35°16' E 139°47'10 9.7
2017-Feb-18 17:33N 35°06' E 139°44'  

Dump ship's entire track history